Time,TemperatureF,DewpointF,PressureIn,WindDirection,WindDirectionDegrees,WindSpeedMPH,WindSpeedGustMPH,Humidity,HourlyPrecipIn,Conditions,Clouds,dailyrainin,SoftwareType,DateUTC
2013-03-22 00:00:00,41.7,25.4,29.91,North,349,0.0,0.0,52,0.00,,---,0.00,VWS V14.01,2013-03-22 04:00:00,
2013-03-22 00:01:00,41.6,24.8,29.91,North,349,0.0,0.0,51,0.00,,---,0.00,VWS V14.01,2013-03-22 04:01:00,
2013-03-22 00:04:00,41.5,25.2,29.91,North,349,0.0,0.0,52,0.00,,---,0.00,VWS V14.01,2013-03-22 04:04:00,
2013-03-22 00:07:00,41.5,24.7,29.91,North,349,0.0,0.0,51,0.00,,---,0.00,VWS V14.01,2013-03-22 04:07:00,
2013-03-22 00:10:00,41.3,25.9,29.91,North,349,0.0,0.0,54,0.00,,---,0.00,VWS V14.01,2013-03-22 04:10:00,
2013-03-22 00:13:00,41.0,26.1,29.91,NNE,26,0.0,4.0,55,0.00,,---,0.00,VWS V14.01,2013-03-22 04:13:00,
2013-03-22 00:15:00,41.0,26.1,29.92,NNE,26,0.0,4.0,55,0.00,,---,0.00,VWS V14.01,2013-03-22 04:15:00,
2013-03-22 00:16:00,40.9,26.9,29.92,NNE,26,0.0,1.0,57,0.00,,---,0.00,VWS V14.01,2013-03-22 04:16:00,
2013-03-22 00:19:00,40.9,26.9,29.92,NNE,26,0.0,1.0,57,0.00,,---,0.00,VWS V14.01,2013-03-22 04:19:00,
2013-03-22 00:22:00,41.0,27.0,29.92,NNE,26,0.0,1.0,57,0.00,,---,0.00,VWS V14.01,2013-03-22 04:22:00,
2013-03-22 00:25:00,40.9,26.9,29.92,NNE,26,0.0,1.0,57,0.00,,---,0.00,VWS V14.01,2013-03-22 04:25:00,
2013-03-22 00:28:00,41.0,27.4,29.92,NNE,26,0.0,1.0,58,0.00,,---,0.00,VWS V14.01,2013-03-22 04:28:00,
2013-03-22 00:30:00,41.0,27.0,29.92,NNE,26,0.0,1.0,57,0.00,,---,0.00,VWS V14.01,2013-03-22 04:30:00,
2013-03-22 00:31:00,41.0,27.0,29.92,NNE,26,0.0,0.0,57,0.00,,---,0.00,VWS V14.01,2013-03-22 04:31:00,
2013-03-22 00:34:00,41.0,27.8,29.92,NNE,26,0.0,0.0,59,0.00,,---,0.00,VWS V14.01,2013-03-22 04:34:00,
2013-03-22 00:37:00,41.0,27.4,29.92,NNE,26,0.0,0.0,58,0.00,,---,0.00,VWS V14.01,2013-03-22 04:37:00,
2013-03-22 00:43:00,40.9,27.3,29.92,NNE,26,0.0,0.0,58,0.00,,---,0.00,VWS V14.01,2013-03-22 04:43:00,
2013-03-22 00:45:00,40.9,27.7,29.93,NNE,26,0.0,0.0,59,0.00,,---,0.00,VWS V14.01,2013-03-22 04:45:00,
2013-03-22 00:46:00,40.9,27.3,29.93,NNE,26,0.0,0.0,58,0.00,,---,0.00,VWS V14.01,2013-03-22 04:46:00,
2013-03-22 00:49:00,40.9,26.9,29.93,NNE,26,0.0,0.0,57,0.00,,---,0.00,VWS V14.01,2013-03-22 04:49:00,
2013-03-22 00:52:00,40.9,27.3,29.93,NNE,26,0.0,0.0,58,0.00,,---,0.00,VWS V14.01,2013-03-22 04:52:00,
2013-03-22 00:55:00,40.8,27.6,29.93,NNE,26,0.0,0.0,59,0.00,,---,0.00,VWS V14.01,2013-03-22 04:55:00,
2013-03-22 00:58:00,40.7,27.1,29.93,NNE,26,0.0,0.0,58,0.00,,---,0.00,VWS V14.01,2013-03-22 04:58:00,
2013-03-22 01:00:00,40.7,27.1,29.92,NNE,26,0.0,0.0,58,0.00,,---,0.00,VWS V14.01,2013-03-22 05:00:00,
2013-03-22 01:01:00,40.7,27.5,29.92,NNE,26,0.0,0.0,59,0.00,,---,0.00,VWS V14.01,2013-03-22 05:01:00,
2013-03-22 01:04:00,40.6,27.8,29.92,NNE,26,0.0,0.0,60,0.00,,---,0.00,VWS V14.01,2013-03-22 05:04:00,
2013-03-22 01:07:00,40.5,26.0,29.92,NNW,347,0.0,5.0,56,0.00,,---,0.00,VWS V14.01,2013-03-22 05:07:00,
2013-03-22 01:10:00,40.5,26.0,29.92,NNW,347,0.0,5.0,56,0.00,,---,0.00,VWS V14.01,2013-03-22 05:10:00,
2013-03-22 01:13:00,40.5,26.5,29.92,NNW,347,0.0,5.0,57,0.00,,---,0.00,VWS V14.01,2013-03-22 05:13:00,
2013-03-22 01:15:00,40.5,26.9,29.92,NNW,347,0.0,5.0,58,0.00,,---,0.00,VWS V14.01,2013-03-22 05:15:00,
2013-03-22 01:16:00,40.5,26.9,29.92,NNW,347,0.0,0.0,58,0.00,,---,0.00,VWS V14.01,2013-03-22 05:16:00,
2013-03-22 01:19:00,40.5,26.9,29.92,NNW,347,0.0,0.0,58,0.00,,---,0.00,VWS V14.01,2013-03-22 05:19:00,
2013-03-22 01:22:00,40.5,25.6,29.92,NNW,347,0.0,0.0,55,0.00,,---,0.00,VWS V14.01,2013-03-22 05:22:00,
2013-03-22 01:25:00,40.5,24.3,29.92,North,360,0.0,3.0,52,0.00,,---,0.00,VWS V14.01,2013-03-22 05:25:00,
2013-03-22 01:28:00,40.6,23.9,29.92,NNE,24,0.0,3.0,51,0.00,,---,0.00,VWS V14.01,2013-03-22 05:28:00,
2013-03-22 01:30:00,40.6,23.9,29.93,North,360,0.0,3.0,51,0.00,,---,0.00,VWS V14.01,2013-03-22 05:30:00,
2013-03-22 01:31:00,40.7,24.0,29.93,NNW,342,3.0,3.0,51,0.00,,---,0.00,VWS V14.01,2013-03-22 05:31:00,
2013-03-22 01:34:00,40.8,23.6,29.93,WNW,302,6.0,6.0,50,0.00,,---,0.00,VWS V14.01,2013-03-22 05:34:00,
2013-03-22 01:37:00,40.9,23.2,29.93,NNW,343,0.0,6.0,49,0.00,,---,0.00,VWS V14.01,2013-03-22 05:37:00,
2013-03-22 01:40:00,41.0,22.8,29.93,NNW,344,0.0,6.0,48,0.00,,---,0.00,VWS V14.01,2013-03-22 05:40:00,
2013-03-22 01:43:00,41.1,22.4,29.93,NNW,327,1.0,6.0,47,0.00,,---,0.00,VWS V14.01,2013-03-22 05:43:00,
2013-03-22 01:45:00,41.1,22.4,29.93,NNW,346,0.0,6.0,47,0.00,,---,0.00,VWS V14.01,2013-03-22 05:45:00,
2013-03-22 01:46:00,41.2,22.5,29.93,NE,42,0.0,1.0,47,0.00,,---,0.00,VWS V14.01,2013-03-22 05:46:00,
2013-03-22 01:49:00,41.2,22.5,29.93,NNW,333,3.0,6.0,47,0.00,,---,0.00,VWS V14.01,2013-03-22 05:49:00,
2013-03-22 01:52:00,41.2,22.0,29.93,NNE,15,0.0,6.0,46,0.00,,---,0.00,VWS V14.01,2013-03-22 05:52:00,
2013-03-22 01:55:00,41.3,22.6,29.93,NE,34,0.0,6.0,47,0.00,,---,0.00,VWS V14.01,2013-03-22 05:55:00,
2013-03-22 01:58:00,41.2,22.5,29.93,NNE,25,0.0,6.0,47,0.00,,---,0.00,VWS V14.01,2013-03-22 05:58:00,
2013-03-22 02:00:00,41.2,22.5,29.93,NNE,24,0.0,6.0,47,0.00,,---,0.00,VWS V14.01,2013-03-22 06:00:00,
2013-03-22 02:01:00,41.2,22.5,29.93,NNE,24,0.0,0.0,47,0.00,,---,0.00,VWS V14.01,2013-03-22 06:01:00,
2013-03-22 02:04:00,41.1,22.4,29.93,NNE,20,0.0,7.0,47,0.00,,---,0.00,VWS V14.01,2013-03-22 06:04:00,
2013-03-22 02:07:00,41.1,22.4,29.93,NW,326,0.0,7.0,47,0.00,,---,0.00,VWS V14.01,2013-03-22 06:07:00,
2013-03-22 02:10:00,41.0,22.3,29.93,ENE,61,0.0,7.0,47,0.00,,---,0.00,VWS V14.01,2013-03-22 06:10:00,
2013-03-22 02:13:00,41.0,22.8,29.93,NNW,338,3.0,7.0,48,0.00,,---,0.00,VWS V14.01,2013-03-22 06:13:00,
2013-03-22 02:15:00,40.9,22.7,29.93,North,355,0.0,7.0,48,0.00,,---,0.00,VWS V14.01,2013-03-22 06:15:00,
2013-03-22 02:16:00,40.9,22.7,29.93,North,350,0.0,2.0,48,0.00,,---,0.00,VWS V14.01,2013-03-22 06:16:00,
2013-03-22 02:19:00,40.8,22.6,29.93,NNE,30,0.0,4.0,48,0.00,,---,0.00,VWS V14.01,2013-03-22 06:19:00,
2013-03-22 02:22:00,40.7,22.5,29.93,NW,320,2.0,4.0,48,0.00,,---,0.00,VWS V14.01,2013-03-22 06:22:00,
2013-03-22 02:25:00,40.6,23.0,29.93,NW,317,0.0,6.0,49,0.00,,---,0.00,VWS V14.01,2013-03-22 06:25:00,
2013-03-22 02:28:00,40.5,22.4,29.93,NE,49,0.0,6.0,48,0.00,,---,0.00,VWS V14.01,2013-03-22 06:28:00,
2013-03-22 02:30:00,40.5,22.4,29.93,NNE,26,0.0,6.0,48,0.00,,---,0.00,VWS V14.01,2013-03-22 06:30:00,
2013-03-22 02:31:00,40.5,22.9,29.93,NE,51,4.0,4.0,49,0.00,,---,0.00,VWS V14.01,2013-03-22 06:31:00,
2013-03-22 02:34:00,40.4,22.3,29.93,NNE,16,0.0,4.0,48,0.00,,---,0.00,VWS V14.01,2013-03-22 06:34:00,
2013-03-22 02:37:00,40.3,22.2,29.93,NW,321,0.0,4.0,48,0.00,,---,0.00,VWS V14.01,2013-03-22 06:37:00,
2013-03-22 02:41:00,40.2,22.1,29.93,ENE,62,4.0,4.0,48,0.00,,---,0.00,VWS V14.01,2013-03-22 06:41:00,
2013-03-22 02:44:00,40.1,21.5,29.93,East,88,2.0,5.0,47,0.00,,---,0.00,VWS V14.01,2013-03-22 06:44:00,
2013-03-22 02:45:00,40.1,21.5,29.93,ENE,62,0.0,5.0,47,0.00,,---,0.00,VWS V14.01,2013-03-22 06:45:00,
2013-03-22 02:46:00,40.1,21.5,29.93,NNE,20,3.0,4.0,47,0.00,,---,0.00,VWS V14.01,2013-03-22 06:46:00,
2013-03-22 02:49:00,40.0,21.4,29.93,NE,46,1.0,4.0,47,0.00,,---,0.00,VWS V14.01,2013-03-22 06:49:00,
2013-03-22 02:53:00,40.0,21.9,29.93,NNW,343,0.0,4.0,48,0.00,,---,0.00,VWS V14.01,2013-03-22 06:53:00,
2013-03-22 02:56:00,39.9,21.8,29.93,North,360,0.0,4.0,48,0.00,,---,0.00,VWS V14.01,2013-03-22 06:56:00,
2013-03-22 02:59:00,39.8,21.7,29.93,NE,49,0.0,4.0,48,0.00,,---,0.00,VWS V14.01,2013-03-22 06:59:00,
2013-03-22 03:00:00,39.8,21.7,29.93,NE,50,0.0,4.0,48,0.00,,---,0.00,VWS V14.01,2013-03-22 07:00:00,
2013-03-22 03:02:00,39.8,21.7,29.93,NW,325,0.0,5.0,48,0.00,,---,0.00,VWS V14.01,2013-03-22 07:02:00,
2013-03-22 03:05:00,39.8,22.2,29.93,NNE,18,2.0,5.0,49,0.00,,---,0.00,VWS V14.01,2013-03-22 07:05:00,
2013-03-22 03:08:00,39.7,22.1,29.93,NE,34,0.0,5.0,49,0.00,,---,0.00,VWS V14.01,2013-03-22 07:08:00,
2013-03-22 03:11:00,39.6,21.5,29.93,NE,49,0.0,5.0,48,0.00,,---,0.00,VWS V14.01,2013-03-22 07:11:00,
2013-03-22 03:14:00,39.6,22.0,29.94,ENE,72,0.0,5.0,49,0.00,,---,0.00,VWS V14.01,2013-03-22 07:14:00,
2013-03-22 03:15:00,39.6,22.0,29.94,ENE,74,1.0,5.0,49,0.00,,---,0.00,VWS V14.01,2013-03-22 07:15:00,
2013-03-22 03:17:00,39.5,21.9,29.94,NE,55,0.0,3.0,49,0.00,,---,0.00,VWS V14.01,2013-03-22 07:17:00,
2013-03-22 03:20:00,39.5,21.9,29.94,NE,43,0.0,4.0,49,0.00,,---,0.00,VWS V14.01,2013-03-22 07:20:00,
2013-03-22 03:23:00,39.3,21.8,29.94,East,79,0.0,5.0,49,0.00,,---,0.00,VWS V14.01,2013-03-22 07:23:00,
2013-03-22 03:26:00,39.3,21.8,29.94,East,84,1.0,5.0,49,0.00,,---,0.00,VWS V14.01,2013-03-22 07:26:00,
2013-03-22 03:29:00,39.2,21.7,29.94,NE,42,0.0,5.0,49,0.00,,---,0.00,VWS V14.01,2013-03-22 07:29:00,
2013-03-22 03:30:00,39.2,21.7,29.94,ENE,73,0.0,5.0,49,0.00,,---,0.00,VWS V14.01,2013-03-22 07:30:00,
2013-03-22 03:32:00,39.1,21.6,29.94,ENE,71,0.0,0.0,49,0.00,,---,0.00,VWS V14.01,2013-03-22 07:32:00,
2013-03-22 03:35:00,39.0,21.5,29.94,NE,35,0.0,4.0,49,0.00,,---,0.00,VWS V14.01,2013-03-22 07:35:00,
2013-03-22 03:38:00,38.9,21.9,29.94,NE,39,0.0,4.0,50,0.00,,---,0.00,VWS V14.01,2013-03-22 07:38:00,
2013-03-22 03:41:00,38.9,21.9,29.94,NNE,15,0.0,4.0,50,0.00,,---,0.00,VWS V14.01,2013-03-22 07:41:00,
2013-03-22 03:44:00,38.9,22.3,29.95,North,5,0.0,4.0,51,0.00,,---,0.00,VWS V14.01,2013-03-22 07:44:00,
2013-03-22 03:45:00,38.9,22.3,29.95,North,360,0.0,4.0,51,0.00,,---,0.00,VWS V14.01,2013-03-22 07:45:00,
2013-03-22 03:47:00,38.9,22.3,29.95,NNW,347,0.0,4.0,51,0.00,,---,0.00,VWS V14.01,2013-03-22 07:47:00,
2013-03-22 03:50:00,38.8,22.7,29.95,NNW,344,4.0,6.0,52,0.00,,---,0.00,VWS V14.01,2013-03-22 07:50:00,
2013-03-22 03:53:00,38.8,22.2,29.95,NNW,344,0.0,6.0,51,0.00,,---,0.00,VWS V14.01,2013-03-22 07:53:00,
2013-03-22 03:56:00,38.8,22.2,29.95,NW,304,2.0,6.0,51,0.00,,---,0.00,VWS V14.01,2013-03-22 07:56:00,
2013-03-22 03:59:00,38.8,22.2,29.96,ESE,117,0.0,6.0,51,0.00,,---,0.00,VWS V14.01,2013-03-22 07:59:00,
2013-03-22 04:00:00,38.7,22.1,29.96,ESE,117,0.0,6.0,51,0.00,,---,0.00,VWS V14.01,2013-03-22 08:00:00,
2013-03-22 04:02:00,38.8,21.8,29.96,North,360,0.0,3.0,50,0.00,,---,0.00,VWS V14.01,2013-03-22 08:02:00,
2013-03-22 04:05:00,38.7,22.1,29.96,North,360,0.0,3.0,51,0.00,,---,0.00,VWS V14.01,2013-03-22 08:05:00,
2013-03-22 04:08:00,38.7,21.7,29.96,North,360,0.0,3.0,50,0.00,,---,0.00,VWS V14.01,2013-03-22 08:08:00,
2013-03-22 04:11:00,38.7,21.7,29.96,NNW,336,2.0,4.0,50,0.00,,---,0.00,VWS V14.01,2013-03-22 08:11:00,
2013-03-22 04:14:00,38.7,22.1,29.96,NNW,344,2.0,5.0,51,0.00,,---,0.00,VWS V14.01,2013-03-22 08:14:00,
2013-03-22 04:15:00,38.7,22.1,29.96,NNW,344,0.0,5.0,51,0.00,,---,0.00,VWS V14.01,2013-03-22 08:15:00,
2013-03-22 04:17:00,38.6,21.6,29.96,NNW,344,0.0,2.0,50,0.00,,---,0.00,VWS V14.01,2013-03-22 08:17:00,
2013-03-22 04:20:00,38.6,22.0,29.96,NNW,344,0.0,2.0,51,0.00,,---,0.00,VWS V14.01,2013-03-22 08:20:00,
2013-03-22 04:23:00,38.6,22.0,29.96,NNW,348,0.0,6.0,51,0.00,,---,0.00,VWS V14.01,2013-03-22 08:23:00,
2013-03-22 04:26:00,38.6,22.0,29.96,NNW,347,0.0,6.0,51,0.00,,---,0.00,VWS V14.01,2013-03-22 08:26:00,
2013-03-22 04:29:00,38.6,22.0,29.97,North,350,0.0,6.0,51,0.00,,---,0.00,VWS V14.01,2013-03-22 08:29:00,
2013-03-22 04:30:00,38.6,22.0,29.97,North,350,0.0,6.0,51,0.00,,---,0.00,VWS V14.01,2013-03-22 08:30:00,
2013-03-22 04:32:00,38.6,22.0,29.97,NNW,341,0.0,6.0,51,0.00,,---,0.00,VWS V14.01,2013-03-22 08:32:00,
2013-03-22 04:35:00,38.6,22.0,29.97,North,355,0.0,6.0,51,0.00,,---,0.00,VWS V14.01,2013-03-22 08:35:00,
2013-03-22 04:38:00,38.6,22.0,29.97,North,355,0.0,6.0,51,0.00,,---,0.00,VWS V14.01,2013-03-22 08:38:00,
2013-03-22 04:41:00,38.6,22.5,29.97,North,355,1.0,6.0,52,0.00,,---,0.00,VWS V14.01,2013-03-22 08:41:00,
2013-03-22 04:44:00,38.6,22.0,29.98,NE,35,0.0,10.0,51,0.00,,---,0.00,VWS V14.01,2013-03-22 08:44:00,
2013-03-22 04:45:00,38.6,22.0,29.98,NE,34,0.0,10.0,51,0.00,,---,0.00,VWS V14.01,2013-03-22 08:45:00,
2013-03-22 04:47:00,38.6,22.0,29.98,NNE,19,1.0,2.0,51,0.00,,---,0.00,VWS V14.01,2013-03-22 08:47:00,
2013-03-22 04:50:00,38.6,22.0,29.98,NNW,341,1.0,3.0,51,0.00,,---,0.00,VWS V14.01,2013-03-22 08:50:00,
2013-03-22 04:53:00,38.6,21.6,29.98,NE,43,0.0,4.0,50,0.00,,---,0.00,VWS V14.01,2013-03-22 08:53:00,
2013-03-22 04:56:00,38.6,22.0,29.98,NE,44,0.0,4.0,51,0.00,,---,0.00,VWS V14.01,2013-03-22 08:56:00,
2013-03-22 04:59:00,38.6,21.6,30.00,NNW,347,0.0,4.0,50,0.00,,---,0.00,VWS V14.01,2013-03-22 08:59:00,
2013-03-22 05:00:00,38.6,21.6,30.00,NNW,347,2.0,4.0,50,0.00,,---,0.00,VWS V14.01,2013-03-22 09:00:00,
2013-03-22 05:02:00,38.6,21.6,30.00,North,5,1.0,3.0,50,0.00,,---,0.00,VWS V14.01,2013-03-22 09:02:00,
2013-03-22 05:05:00,38.6,21.6,30.00,NNW,342,3.0,5.0,50,0.00,,---,0.00,VWS V14.01,2013-03-22 09:05:00,
2013-03-22 05:08:00,38.6,21.1,30.00,NNW,341,1.0,7.0,49,0.00,,---,0.00,VWS V14.01,2013-03-22 09:08:00,
2013-03-22 05:11:00,38.6,21.6,30.00,NNW,341,0.0,7.0,50,0.00,,---,0.00,VWS V14.01,2013-03-22 09:11:00,
2013-03-22 05:14:00,38.7,21.7,30.00,North,5,0.0,7.0,50,0.00,,---,0.00,VWS V14.01,2013-03-22 09:14:00,
2013-03-22 05:15:00,38.7,21.7,30.00,North,5,0.0,7.0,50,0.00,,---,0.00,VWS V14.01,2013-03-22 09:15:00,
2013-03-22 05:17:00,38.7,21.7,30.00,East,83,0.0,0.0,50,0.00,,---,0.00,VWS V14.01,2013-03-22 09:17:00,
2013-03-22 05:20:00,38.7,21.7,30.00,ENE,76,0.0,2.0,50,0.00,,---,0.00,VWS V14.01,2013-03-22 09:20:00,
2013-03-22 05:23:00,38.7,21.2,30.00,North,355,0.0,4.0,49,0.00,,---,0.00,VWS V14.01,2013-03-22 09:23:00,
2013-03-22 05:26:00,38.7,21.7,30.00,North,349,0.0,5.0,50,0.00,,---,0.00,VWS V14.01,2013-03-22 09:26:00,
2013-03-22 05:29:00,38.8,21.8,30.00,North,349,0.0,5.0,50,0.00,,---,0.00,VWS V14.01,2013-03-22 09:29:00,
2013-03-22 05:30:00,38.7,21.7,30.00,North,349,0.0,5.0,50,0.00,,---,0.00,VWS V14.01,2013-03-22 09:30:00,
2013-03-22 05:32:00,38.8,21.3,30.00,North,360,0.0,3.0,49,0.00,,---,0.00,VWS V14.01,2013-03-22 09:32:00,
2013-03-22 05:39:00,38.8,20.8,30.00,NNE,18,0.0,6.0,48,0.00,,---,0.00,VWS V14.01,2013-03-22 09:39:00,
2013-03-22 05:42:00,38.8,21.3,30.00,NE,46,0.0,6.0,49,0.00,,---,0.00,VWS V14.01,2013-03-22 09:42:00,
2013-03-22 05:45:00,38.8,21.3,30.01,NE,38,0.0,6.0,49,0.00,,---,0.00,VWS V14.01,2013-03-22 09:45:00,
2013-03-22 05:48:00,38.8,20.8,30.01,NNE,13,0.0,4.0,48,0.00,,---,0.00,VWS V14.01,2013-03-22 09:48:00,
2013-03-22 05:51:00,38.8,21.3,30.01,East,91,1.0,4.0,49,0.00,,---,0.00,VWS V14.01,2013-03-22 09:51:00,
2013-03-22 05:54:00,38.8,21.3,30.01,North,355,0.0,4.0,49,0.00,,---,0.00,VWS V14.01,2013-03-22 09:54:00,
2013-03-22 05:57:00,38.8,21.3,30.01,NNE,14,0.0,4.0,49,0.00,,---,0.00,VWS V14.01,2013-03-22 09:57:00,
2013-03-22 06:00:00,38.8,20.8,30.01,NNE,15,0.0,4.0,48,0.00,,---,0.00,VWS V14.01,2013-03-22 10:00:00,
2013-03-22 06:03:00,38.8,21.3,30.01,North,9,0.0,1.0,49,0.00,,---,0.00,VWS V14.01,2013-03-22 10:03:00,
2013-03-22 06:06:00,38.8,21.3,30.01,North,9,1.0,1.0,49,0.00,,---,0.00,VWS V14.01,2013-03-22 10:06:00,
2013-03-22 06:09:00,38.8,20.8,30.01,North,5,0.0,3.0,48,0.00,,---,0.00,VWS V14.01,2013-03-22 10:09:00,
2013-03-22 06:12:00,38.8,20.8,30.01,North,5,0.0,3.0,48,0.00,,---,0.00,VWS V14.01,2013-03-22 10:12:00,
2013-03-22 06:15:00,38.7,20.7,30.01,North,351,1.0,4.0,48,0.00,,---,0.00,VWS V14.01,2013-03-22 10:15:00,
2013-03-22 06:18:00,38.7,20.7,30.01,North,355,0.0,4.0,48,0.00,,---,0.00,VWS V14.01,2013-03-22 10:18:00,
2013-03-22 06:21:00,38.7,21.2,30.01,North,9,3.0,4.0,49,0.00,,---,0.00,VWS V14.01,2013-03-22 10:21:00,
2013-03-22 06:24:00,38.7,21.2,30.01,North,9,0.0,4.0,49,0.00,,---,0.00,VWS V14.01,2013-03-22 10:24:00,
2013-03-22 06:27:00,38.7,21.2,30.01,ENE,74,0.0,4.0,49,0.00,,---,0.00,VWS V14.01,2013-03-22 10:27:00,
2013-03-22 06:30:00,38.6,20.6,30.03,North,350,0.0,5.0,48,0.00,,---,0.00,VWS V14.01,2013-03-22 10:30:00,
2013-03-22 06:33:00,38.6,20.6,30.03,North,350,0.0,0.0,48,0.00,,---,0.00,VWS V14.01,2013-03-22 10:33:00,
2013-03-22 06:36:00,38.6,20.6,30.03,North,350,0.0,2.0,48,0.00,,---,0.00,VWS V14.01,2013-03-22 10:36:00,
2013-03-22 06:39:00,38.5,20.5,30.03,North,350,0.0,2.0,48,0.00,,---,0.00,VWS V14.01,2013-03-22 10:39:00,
2013-03-22 06:42:00,38.5,20.0,30.03,North,350,0.0,4.0,47,0.00,,---,0.00,VWS V14.01,2013-03-22 10:42:00,
2013-03-22 06:45:00,38.5,20.5,30.03,North,350,0.0,4.0,48,0.00,,---,0.00,VWS V14.01,2013-03-22 10:45:00,
2013-03-22 06:48:00,38.4,19.9,30.03,North,360,1.0,4.0,47,0.00,,---,0.00,VWS V14.01,2013-03-22 10:48:00,
2013-03-22 06:51:00,38.4,20.4,30.03,North,360,0.0,4.0,48,0.00,,---,0.00,VWS V14.01,2013-03-22 10:51:00,
2013-03-22 06:54:00,38.4,20.4,30.03,NNE,22,0.0,4.0,48,0.00,,---,0.00,VWS V14.01,2013-03-22 10:54:00,
2013-03-22 06:57:00,38.3,20.4,30.03,NNE,22,0.0,4.0,48,0.00,,---,0.00,VWS V14.01,2013-03-22 10:57:00,
2013-03-22 07:00:00,38.3,20.4,30.03,NNW,348,0.0,5.0,48,0.00,,---,0.00,VWS V14.01,2013-03-22 11:00:00,
2013-03-22 07:03:00,38.2,20.2,30.03,ENE,65,0.0,2.0,48,0.00,,---,0.00,VWS V14.01,2013-03-22 11:03:00,
2013-03-22 07:06:00,38.2,20.2,30.03,NNE,22,3.0,3.0,48,0.00,,---,0.00,VWS V14.01,2013-03-22 11:06:00,
2013-03-22 07:09:00,38.1,20.6,30.03,NNE,17,0.0,3.0,49,0.00,,---,0.00,VWS V14.01,2013-03-22 11:09:00,
2013-03-22 07:12:00,38.1,20.6,30.03,NNE,17,0.0,3.0,49,0.00,,---,0.00,VWS V14.01,2013-03-22 11:12:00,
2013-03-22 07:15:00,38.1,20.6,30.04,NNW,346,3.0,4.0,49,0.00,,---,0.00,VWS V14.01,2013-03-22 11:15:00,
2013-03-22 07:18:00,38.0,20.5,30.04,NNW,344,0.0,3.0,49,0.00,,---,0.00,VWS V14.01,2013-03-22 11:18:00,
2013-03-22 07:21:00,38.0,20.5,30.04,NNW,342,0.0,3.0,49,0.00,,---,0.00,VWS V14.01,2013-03-22 11:21:00,
2013-03-22 07:24:00,37.9,20.9,30.04,NNW,342,0.0,3.0,50,0.00,,---,0.00,VWS V14.01,2013-03-22 11:24:00,
2013-03-22 07:27:00,37.9,20.9,30.04,NNW,342,0.0,3.0,50,0.00,,---,0.00,VWS V14.01,2013-03-22 11:27:00,
2013-03-22 07:30:00,37.9,20.9,30.04,NNW,342,0.0,3.0,50,0.00,,---,0.00,VWS V14.01,2013-03-22 11:30:00,
2013-03-22 07:33:00,37.9,21.4,30.04,NNW,343,0.0,1.0,51,0.00,,---,0.00,VWS V14.01,2013-03-22 11:33:00,
2013-03-22 07:36:00,37.9,21.4,30.04,NNW,342,5.0,5.0,51,0.00,,---,0.00,VWS V14.01,2013-03-22 11:36:00,
2013-03-22 07:39:00,37.9,20.9,30.04,NNW,335,1.0,5.0,50,0.00,,---,0.00,VWS V14.01,2013-03-22 11:39:00,
2013-03-22 07:42:00,37.9,21.4,30.04,North,355,1.0,5.0,51,0.00,,---,0.00,VWS V14.01,2013-03-22 11:42:00,
2013-03-22 07:45:00,37.9,20.9,30.04,North,355,0.0,5.0,50,0.00,,---,0.00,VWS V14.01,2013-03-22 11:45:00,
2013-03-22 07:48:00,38.0,21.5,30.04,North,355,0.0,0.0,51,0.00,,---,0.00,VWS V14.01,2013-03-22 11:48:00,
2013-03-22 07:51:00,38.0,21.5,30.04,East,80,0.0,4.0,51,0.00,,---,0.00,VWS V14.01,2013-03-22 11:51:00,
2013-03-22 07:54:00,38.0,21.5,30.04,ENE,72,0.0,4.0,51,0.00,,---,0.00,VWS V14.01,2013-03-22 11:54:00,
2013-03-22 07:57:00,38.0,21.5,30.04,NE,46,0.0,4.0,51,0.00,,---,0.00,VWS V14.01,2013-03-22 11:57:00,
2013-03-22 08:00:00,38.1,21.6,30.03,NE,45,0.0,4.0,51,0.00,,---,0.00,VWS V14.01,2013-03-22 12:00:00,
2013-03-22 08:03:00,38.1,20.6,30.03,NE,38,0.0,2.0,49,0.00,,---,0.00,VWS V14.01,2013-03-22 12:03:00,
2013-03-22 08:06:00,38.2,20.7,30.03,NE,38,0.0,2.0,49,0.00,,---,0.00,VWS V14.01,2013-03-22 12:06:00,
2013-03-22 08:09:00,38.2,21.2,30.03,NE,38,0.0,2.0,50,0.00,,---,0.00,VWS V14.01,2013-03-22 12:09:00,
2013-03-22 08:12:00,38.2,21.2,30.03,NE,38,0.0,2.0,50,0.00,,---,0.00,VWS V14.01,2013-03-22 12:12:00,
2013-03-22 08:15:00,38.2,21.2,30.03,NE,38,0.0,2.0,50,0.00,,---,0.00,VWS V14.01,2013-03-22 12:15:00,
2013-03-22 08:18:00,38.3,21.3,30.03,NE,36,0.0,2.0,50,0.00,,---,0.00,VWS V14.01,2013-03-22 12:18:00,
2013-03-22 08:21:00,38.4,21.9,30.03,NNE,32,2.0,2.0,51,0.00,,---,0.00,VWS V14.01,2013-03-22 12:21:00,
2013-03-22 08:24:00,38.4,21.4,30.03,NNE,32,0.0,2.0,50,0.00,,---,0.00,VWS V14.01,2013-03-22 12:24:00,
2013-03-22 08:27:00,38.5,21.5,30.03,NE,45,0.0,2.0,50,0.00,,---,0.00,VWS V14.01,2013-03-22 12:27:00,
2013-03-22 08:30:00,38.6,21.6,30.04,NE,44,0.0,2.0,50,0.00,,---,0.00,VWS V14.01,2013-03-22 12:30:00,
2013-03-22 08:34:00,38.7,21.7,30.04,NNW,336,0.0,6.0,50,0.00,,---,0.00,VWS V14.01,2013-03-22 12:34:00,
2013-03-22 08:37:00,38.8,21.8,30.04,NNW,336,0.0,6.0,50,0.00,,---,0.00,VWS V14.01,2013-03-22 12:37:00,
2013-03-22 08:40:00,38.9,22.3,30.04,NNW,336,3.0,6.0,51,0.00,,---,0.00,VWS V14.01,2013-03-22 12:40:00,
2013-03-22 08:43:00,38.9,21.9,30.04,NNW,344,0.0,6.0,50,0.00,,---,0.00,VWS V14.01,2013-03-22 12:43:00,
2013-03-22 08:45:00,39.0,22.0,30.04,ENE,76,0.0,6.0,50,0.00,,---,0.00,VWS V14.01,2013-03-22 12:45:00,
2013-03-22 08:46:00,39.1,22.0,30.04,ENE,61,0.0,2.0,50,0.00,,---,0.00,VWS V14.01,2013-03-22 12:46:00,
2013-03-22 08:49:00,39.1,22.5,30.04,ENE,61,0.0,2.0,51,0.00,,---,0.00,VWS V14.01,2013-03-22 12:49:00,
2013-03-22 08:52:00,39.2,22.1,30.04,NNE,26,0.0,4.0,50,0.00,,---,0.00,VWS V14.01,2013-03-22 12:52:00,
2013-03-22 08:55:00,39.3,22.7,30.04,NNW,340,1.0,5.0,51,0.00,,---,0.00,VWS V14.01,2013-03-22 12:55:00,
2013-03-22 08:58:00,39.4,22.3,30.04,NNW,340,0.0,5.0,50,0.00,,---,0.00,VWS V14.01,2013-03-22 12:58:00,
2013-03-22 09:00:00,39.5,22.4,30.05,North,351,0.0,5.0,50,0.00,,---,0.00,VWS V14.01,2013-03-22 13:00:00,
2013-03-22 09:01:00,39.5,22.4,30.05,North,355,0.0,2.0,50,0.00,,---,0.00,VWS V14.01,2013-03-22 13:01:00,
2013-03-22 09:04:00,39.6,22.5,30.05,North,355,0.0,2.0,50,0.00,,---,0.00,VWS V14.01,2013-03-22 13:04:00,
2013-03-22 09:07:00,39.7,22.6,30.05,North,355,0.0,2.0,50,0.00,,---,0.00,VWS V14.01,2013-03-22 13:07:00,
2013-03-22 09:10:00,39.7,22.6,30.05,East,79,0.0,3.0,50,0.00,,---,0.00,VWS V14.01,2013-03-22 13:10:00,
2013-03-22 09:13:00,39.8,22.7,30.05,NNE,29,0.0,3.0,50,0.00,,---,0.00,VWS V14.01,2013-03-22 13:13:00,
2013-03-22 09:15:00,39.8,22.7,30.04,East,99,1.0,4.0,50,0.00,,---,0.00,VWS V14.01,2013-03-22 13:15:00,
2013-03-22 09:16:00,39.8,22.7,30.04,ENE,67,2.0,2.0,50,0.00,,---,0.00,VWS V14.01,2013-03-22 13:16:00,
2013-03-22 09:19:00,39.9,22.8,30.04,NNE,15,0.0,3.0,50,0.00,,---,0.00,VWS V14.01,2013-03-22 13:19:00,
2013-03-22 09:22:00,40.0,23.4,30.04,East,98,0.0,3.0,51,0.00,,---,0.00,VWS V14.01,2013-03-22 13:22:00,
2013-03-22 09:28:00,40.6,23.4,30.04,NE,56,3.0,6.0,50,0.00,,---,0.00,VWS V14.01,2013-03-22 13:28:00,
2013-03-22 09:30:00,40.7,23.5,30.02,NNE,17,1.0,6.0,50,0.00,,---,0.00,VWS V14.01,2013-03-22 13:30:00,
2013-03-22 09:31:00,40.9,23.7,30.02,ESE,120,1.0,3.0,50,0.00,,---,0.00,VWS V14.01,2013-03-22 13:31:00,
2013-03-22 09:34:00,41.1,23.9,30.02,WNW,298,0.0,5.0,50,0.00,,---,0.00,VWS V14.01,2013-03-22 13:34:00,
2013-03-22 09:37:00,41.4,23.7,30.02,NE,52,0.0,5.0,49,0.00,,---,0.00,VWS V14.01,2013-03-22 13:37:00,
2013-03-22 09:40:00,41.6,23.9,30.02,NE,55,4.0,5.0,49,0.00,,---,0.00,VWS V14.01,2013-03-22 13:40:00,
2013-03-22 09:43:00,41.7,24.0,30.02,North,5,0.0,5.0,49,0.00,,---,0.00,VWS V14.01,2013-03-22 13:43:00,
2013-03-22 09:45:00,41.8,24.1,30.04,North,360,0.0,5.0,49,0.00,,---,0.00,VWS V14.01,2013-03-22 13:45:00,
2013-03-22 09:46:00,41.8,24.1,30.04,North,360,0.0,1.0,49,0.00,,---,0.00,VWS V14.01,2013-03-22 13:46:00,
2013-03-22 09:49:00,41.9,24.1,30.04,North,355,0.0,4.0,49,0.00,,---,0.00,VWS V14.01,2013-03-22 13:49:00,
2013-03-22 09:52:00,42.0,24.2,30.04,North,355,0.0,4.0,49,0.00,,---,0.00,VWS V14.01,2013-03-22 13:52:00,
2013-03-22 09:55:00,42.0,24.2,30.04,North,5,0.0,5.0,49,0.00,,---,0.00,VWS V14.01,2013-03-22 13:55:00,
2013-03-22 09:58:00,42.1,24.3,30.04,ENE,72,0.0,5.0,49,0.00,,---,0.00,VWS V14.01,2013-03-22 13:58:00,
2013-03-22 10:00:00,42.2,24.4,30.04,East,83,0.0,5.0,49,0.00,,---,0.00,VWS V14.01,2013-03-22 14:00:00,
2013-03-22 10:01:00,42.2,24.9,30.04,North,10,0.0,2.0,50,0.00,,---,0.00,VWS V14.01,2013-03-22 14:01:00,
2013-03-22 10:04:00,42.4,24.6,30.04,NE,38,1.0,4.0,49,0.00,,---,0.00,VWS V14.01,2013-03-22 14:04:00,
2013-03-22 10:07:00,42.5,24.7,30.04,NE,53,0.0,4.0,49,0.00,,---,0.00,VWS V14.01,2013-03-22 14:07:00,
2013-03-22 10:10:00,42.7,24.9,30.04,NE,53,0.0,4.0,49,0.00,,---,0.00,VWS V14.01,2013-03-22 14:10:00,
2013-03-22 10:13:00,42.9,25.1,30.04,NNW,348,2.0,4.0,49,0.00,,---,0.00,VWS V14.01,2013-03-22 14:13:00,
2013-03-22 10:15:00,43.0,25.2,30.04,ENE,70,1.0,4.0,49,0.00,,---,0.00,VWS V14.01,2013-03-22 14:15:00,
2013-03-22 10:16:00,43.1,24.8,30.04,NNW,334,0.0,2.0,48,0.00,,---,0.00,VWS V14.01,2013-03-22 14:16:00,
2013-03-22 10:19:00,43.3,24.9,30.04,NNW,347,0.0,4.0,48,0.00,,---,0.00,VWS V14.01,2013-03-22 14:19:00,
2013-03-22 10:22:00,43.4,25.0,30.04,North,350,0.0,4.0,48,0.00,,---,0.00,VWS V14.01,2013-03-22 14:22:00,
2013-03-22 10:25:00,43.7,25.3,30.04,North,350,0.0,4.0,48,0.00,,---,0.00,VWS V14.01,2013-03-22 14:25:00,
2013-03-22 10:28:00,43.9,25.0,30.04,North,349,0.0,4.0,47,0.00,,---,0.00,VWS V14.01,2013-03-22 14:28:00,
2013-03-22 10:30:00,43.9,25.0,30.04,ESE,107,1.0,4.0,47,0.00,,---,0.00,VWS V14.01,2013-03-22 14:30:00,
2013-03-22 10:31:00,44.1,25.2,30.04,ESE,118,0.0,2.0,47,0.00,,---,0.00,VWS V14.01,2013-03-22 14:31:00,
2013-03-22 10:34:00,44.5,26.0,30.04,ESE,115,1.0,2.0,48,0.00,,---,0.00,VWS V14.01,2013-03-22 14:34:00,
2013-03-22 10:37:00,44.9,25.9,30.04,East,92,0.0,5.0,47,0.00,,---,0.00,VWS V14.01,2013-03-22 14:37:00,
2013-03-22 10:40:00,45.2,25.7,30.04,NNE,22,0.0,5.0,46,0.00,,---,0.00,VWS V14.01,2013-03-22 14:40:00,
2013-03-22 10:44:00,45.5,25.9,30.04,NE,49,0.0,5.0,46,0.00,,---,0.00,VWS V14.01,2013-03-22 14:44:00,
2013-03-22 10:45:00,45.7,26.6,30.04,ESE,119,3.0,5.0,47,0.00,,---,0.00,VWS V14.01,2013-03-22 14:45:00,
2013-03-22 10:47:00,46.0,25.9,30.04,East,86,2.0,4.0,45,0.00,,---,0.00,VWS V14.01,2013-03-22 14:47:00,
2013-03-22 10:50:00,46.3,26.1,30.04,ENE,58,4.0,7.0,45,0.00,,---,0.00,VWS V14.01,2013-03-22 14:50:00,
2013-03-22 10:53:00,46.7,26.0,30.04,SE,124,4.0,7.0,44,0.00,,---,0.00,VWS V14.01,2013-03-22 14:53:00,
2013-03-22 10:56:00,47.1,26.3,30.04,SSE,154,0.0,7.0,44,0.00,,---,0.00,VWS V14.01,2013-03-22 14:56:00,
2013-03-22 10:59:00,47.4,26.0,30.04,ENE,74,0.0,7.0,43,0.00,,---,0.00,VWS V14.01,2013-03-22 14:59:00,
2013-03-22 11:00:00,47.7,26.3,30.04,ENE,74,0.0,7.0,43,0.00,,---,0.00,VWS V14.01,2013-03-22 15:00:00,
2013-03-22 11:02:00,47.9,26.5,30.04,North,9,1.0,1.0,43,0.00,,---,0.00,VWS V14.01,2013-03-22 15:02:00,
2013-03-22 11:05:00,48.2,26.2,30.04,East,94,2.0,5.0,42,0.00,,---,0.00,VWS V14.01,2013-03-22 15:05:00,
2013-03-22 11:08:00,48.5,26.5,30.04,ESE,105,0.0,5.0,42,0.00,,---,0.00,VWS V14.01,2013-03-22 15:08:00,
2013-03-22 11:11:00,48.6,26.0,30.04,ENE,61,3.0,6.0,41,0.00,,---,0.00,VWS V14.01,2013-03-22 15:11:00,
2013-03-22 11:14:00,48.7,26.6,30.04,NNE,26,0.0,6.0,42,0.00,,---,0.00,VWS V14.01,2013-03-22 15:14:00,
2013-03-22 11:15:00,48.8,26.2,30.04,NNE,26,0.0,6.0,41,0.00,,---,0.00,VWS V14.01,2013-03-22 15:15:00,
2013-03-22 11:17:00,48.9,26.8,30.04,ENE,67,3.0,3.0,42,0.00,,---,0.00,VWS V14.01,2013-03-22 15:17:00,
2013-03-22 11:20:00,49.2,27.1,30.04,East,87,0.0,4.0,42,0.00,,---,0.00,VWS V14.01,2013-03-22 15:20:00,
2013-03-22 11:23:00,49.2,27.1,30.04,East,87,0.0,4.0,42,0.00,,---,0.00,VWS V14.01,2013-03-22 15:23:00,
2013-03-22 11:26:00,49.3,26.6,30.04,East,87,0.0,4.0,41,0.00,,---,0.00,VWS V14.01,2013-03-22 15:26:00,
2013-03-22 11:29:00,49.6,27.5,30.04,ESE,110,2.0,5.0,42,0.00,,---,0.00,VWS V14.01,2013-03-22 15:29:00,
2013-03-22 11:30:00,49.6,28.0,30.03,ESE,117,2.0,5.0,43,0.00,,---,0.00,VWS V14.01,2013-03-22 15:30:00,
2013-03-22 11:32:00,49.6,27.5,30.03,East,97,0.0,2.0,42,0.00,,---,0.00,VWS V14.01,2013-03-22 15:32:00,
2013-03-22 11:35:00,49.8,27.1,30.03,SSE,161,4.0,4.0,41,0.00,,---,0.00,VWS V14.01,2013-03-22 15:35:00,
2013-03-22 11:38:00,49.6,28.0,30.03,SSE,161,3.0,7.0,43,0.00,,---,0.00,VWS V14.01,2013-03-22 15:38:00,
2013-03-22 11:41:00,49.3,27.8,30.03,ENE,57,3.0,7.0,43,0.00,,---,0.00,VWS V14.01,2013-03-22 15:41:00,
2013-03-22 11:44:00,49.1,27.6,30.05,East,90,0.0,7.0,43,0.00,,---,0.00,VWS V14.01,2013-03-22 15:44:00,
2013-03-22 11:45:00,49.0,27.5,30.05,East,90,0.0,7.0,43,0.00,,---,0.00,VWS V14.01,2013-03-22 15:45:00,
2013-03-22 11:47:00,49.0,28.6,30.05,SE,133,4.0,4.0,45,0.00,,---,0.00,VWS V14.01,2013-03-22 15:47:00,
2013-03-22 11:50:00,48.7,27.2,30.05,SE,138,4.0,4.0,43,0.00,,---,0.00,VWS V14.01,2013-03-22 15:50:00,
2013-03-22 11:53:00,48.5,25.3,30.05,SSE,147,2.0,6.0,40,0.00,,---,0.00,VWS V14.01,2013-03-22 15:53:00,
2013-03-22 11:56:00,48.3,27.4,30.05,SE,142,2.0,6.0,44,0.00,,---,0.00,VWS V14.01,2013-03-22 15:56:00,
2013-03-22 11:59:00,48.1,28.3,30.06,SE,132,2.0,6.0,46,0.00,,---,0.00,VWS V14.01,2013-03-22 15:59:00,
2013-03-22 12:00:00,48.0,28.8,30.06,SE,133,4.0,6.0,47,0.00,,---,0.00,VWS V14.01,2013-03-22 16:00:00,
2013-03-22 12:02:00,47.8,28.6,30.06,SSE,157,3.0,6.0,47,0.00,,---,0.00,VWS V14.01,2013-03-22 16:02:00,
2013-03-22 12:05:00,47.8,29.1,30.06,SE,128,1.0,6.0,48,0.00,,---,0.00,VWS V14.01,2013-03-22 16:05:00,
2013-03-22 12:08:00,47.6,29.4,30.06,SE,134,3.0,6.0,49,0.00,,---,0.00,VWS V14.01,2013-03-22 16:08:00,
2013-03-22 12:11:00,47.7,29.5,30.06,SE,137,5.0,6.0,49,0.00,,---,0.00,VWS V14.01,2013-03-22 16:11:00,
2013-03-22 12:14:00,47.8,30.1,30.06,ENE,62,2.0,6.0,50,0.00,,---,0.00,VWS V14.01,2013-03-22 16:14:00,
2013-03-22 12:15:00,47.9,29.7,30.06,ENE,65,1.0,6.0,49,0.00,,---,0.00,VWS V14.01,2013-03-22 16:15:00,
2013-03-22 12:17:00,48.1,30.4,30.06,SE,144,3.0,6.0,50,0.00,,---,0.00,VWS V14.01,2013-03-22 16:17:00,
2013-03-22 12:20:00,48.1,29.9,30.06,SSE,156,4.0,9.0,49,0.00,,---,0.00,VWS V14.01,2013-03-22 16:20:00,
2013-03-22 12:23:00,48.1,30.4,30.06,SE,134,6.0,9.0,50,0.00,,---,0.00,VWS V14.01,2013-03-22 16:23:00,
2013-03-22 12:26:00,48.0,30.3,30.06,East,88,1.0,9.0,50,0.00,,---,0.00,VWS V14.01,2013-03-22 16:26:00,
2013-03-22 12:29:00,48.0,30.3,30.05,SE,140,2.0,9.0,50,0.00,,---,0.00,VWS V14.01,2013-03-22 16:29:00,
2013-03-22 12:30:00,48.0,30.8,30.05,SE,140,1.0,9.0,51,0.00,,---,0.00,VWS V14.01,2013-03-22 16:30:00,
2013-03-22 12:32:00,48.1,30.8,30.05,SE,138,2.0,4.0,51,0.00,,---,0.00,VWS V14.01,2013-03-22 16:32:00,
2013-03-22 12:38:00,48.1,30.8,30.05,SE,128,4.0,5.0,51,0.00,,---,0.00,VWS V14.01,2013-03-22 16:38:00,
2013-03-22 12:41:00,48.1,31.3,30.05,SE,129,2.0,5.0,52,0.00,,---,0.00,VWS V14.01,2013-03-22 16:41:00,
2013-03-22 12:44:00,48.2,31.4,30.05,SE,143,1.0,5.0,52,0.00,,---,0.00,VWS V14.01,2013-03-22 16:44:00,
2013-03-22 12:45:00,48.2,31.4,30.05,SE,143,0.0,5.0,52,0.00,,---,0.00,VWS V14.01,2013-03-22 16:45:00,
2013-03-22 12:47:00,48.4,32.1,30.05,SE,135,1.0,5.0,53,0.00,,---,0.00,VWS V14.01,2013-03-22 16:47:00,
2013-03-22 12:53:00,48.9,32.1,30.05,SE,132,5.0,5.0,52,0.00,,---,0.00,VWS V14.01,2013-03-22 16:53:00,
2013-03-22 12:56:00,49.0,31.7,30.05,SE,130,2.0,6.0,51,0.00,,---,0.00,VWS V14.01,2013-03-22 16:56:00,
2013-03-22 12:59:00,49.1,31.8,30.06,SE,134,2.0,6.0,51,0.00,,---,0.00,VWS V14.01,2013-03-22 16:59:00,
2013-03-22 13:00:00,49.1,31.8,30.06,SE,134,2.0,6.0,51,0.00,,---,0.00,VWS V14.01,2013-03-22 17:00:00,
2013-03-22 13:02:00,49.2,31.9,30.06,SE,133,4.0,5.0,51,0.00,,---,0.00,VWS V14.01,2013-03-22 17:02:00,
2013-03-22 13:05:00,49.1,31.3,30.06,South,188,3.0,5.0,50,0.00,,---,0.00,VWS V14.01,2013-03-22 17:05:00,
2013-03-22 13:08:00,49.2,31.9,30.06,SE,142,2.0,5.0,51,0.00,,---,0.00,VWS V14.01,2013-03-22 17:08:00,
2013-03-22 13:11:00,49.4,31.6,30.06,SE,127,0.0,5.0,50,0.00,,---,0.00,VWS V14.01,2013-03-22 17:11:00,
2013-03-22 13:14:00,49.7,32.3,30.06,South,176,2.0,5.0,51,0.00,,---,0.00,VWS V14.01,2013-03-22 17:14:00,
2013-03-22 13:15:00,49.7,32.3,30.06,SE,144,2.0,5.0,51,0.00,,---,0.00,VWS V14.01,2013-03-22 17:15:00,
2013-03-22 13:17:00,49.8,32.4,30.06,SSE,150,3.0,4.0,51,0.00,,---,0.00,VWS V14.01,2013-03-22 17:17:00,
2013-03-22 13:20:00,49.8,32.4,30.06,SE,134,4.0,6.0,51,0.00,,---,0.00,VWS V14.01,2013-03-22 17:20:00,
2013-03-22 13:23:00,49.8,32.9,30.06,SSE,147,2.0,6.0,52,0.00,,---,0.00,VWS V14.01,2013-03-22 17:23:00,
2013-03-22 13:26:00,49.8,32.9,30.06,SE,136,3.0,6.0,52,0.00,,---,0.00,VWS V14.01,2013-03-22 17:26:00,
2013-03-22 13:29:00,49.9,32.5,30.05,SSE,167,0.0,6.0,51,0.00,,---,0.00,VWS V14.01,2013-03-22 17:29:00,
2013-03-22 13:30:00,49.9,32.5,30.05,SSE,167,0.0,6.0,51,0.00,,---,0.00,VWS V14.01,2013-03-22 17:30:00,
2013-03-22 13:32:00,50.0,32.1,30.05,SE,141,1.0,5.0,50,0.00,,---,0.00,VWS V14.01,2013-03-22 17:32:00,
2013-03-22 13:35:00,50.2,32.8,30.05,South,183,3.0,5.0,51,0.00,,---,0.00,VWS V14.01,2013-03-22 17:35:00,
2013-03-22 13:38:00,50.3,32.9,30.05,SE,140,2.0,5.0,51,0.00,,---,0.00,VWS V14.01,2013-03-22 17:38:00,
2013-03-22 13:41:00,50.3,33.4,30.05,East,90,2.0,5.0,52,0.00,,---,0.00,VWS V14.01,2013-03-22 17:41:00,
2013-03-22 13:44:00,50.3,32.9,30.04,SE,141,4.0,5.0,51,0.00,,---,0.00,VWS V14.01,2013-03-22 17:44:00,
2013-03-22 13:45:00,50.3,32.9,30.04,SE,142,4.0,5.0,51,0.00,,---,0.00,VWS V14.01,2013-03-22 17:45:00,
2013-03-22 13:47:00,50.3,32.4,30.04,SE,135,1.0,5.0,50,0.00,,---,0.00,VWS V14.01,2013-03-22 17:47:00,
2013-03-22 13:56:00,50.1,32.2,30.04,ESE,107,1.0,5.0,50,0.00,,---,0.00,VWS V14.01,2013-03-22 17:56:00,
2013-03-22 13:59:00,50.1,32.7,30.03,SSE,157,3.0,5.0,51,0.00,,---,0.00,VWS V14.01,2013-03-22 17:59:00,
2013-03-22 14:00:00,50.1,32.7,30.03,SSE,161,3.0,5.0,51,0.00,,---,0.00,VWS V14.01,2013-03-22 18:00:00,
2013-03-22 14:01:00,50.2,32.8,30.04,SE,135,3.0,5.0,51,0.00,,---,0.00,VWS V14.01,2013-03-22 18:01:00,
2013-03-22 14:02:00,50.2,32.3,30.03,SSE,163,0.0,5.0,50,0.00,,---,0.00,VWS V14.01,2013-03-22 18:02:00,
2013-03-22 14:05:00,50.1,32.2,30.03,ESE,117,2.0,5.0,50,0.00,,---,0.00,VWS V14.01,2013-03-22 18:05:00,
2013-03-22 14:08:00,50.1,32.7,30.03,SSE,150,2.0,5.0,51,0.00,,---,0.00,VWS V14.01,2013-03-22 18:08:00,
2013-03-22 14:11:00,50.2,32.8,30.03,SSE,150,0.0,5.0,51,0.00,,---,0.00,VWS V14.01,2013-03-22 18:11:00,
2013-03-22 14:15:00,50.4,33.0,30.04,South,190,2.0,5.0,51,0.00,,---,0.00,VWS V14.01,2013-03-22 18:15:00,
2013-03-22 14:17:00,50.5,33.5,30.04,SE,144,3.0,5.0,52,0.00,,---,0.00,VWS V14.01,2013-03-22 18:17:00,
2013-03-22 14:24:00,50.6,33.6,30.04,SSE,161,1.0,5.0,52,0.00,,---,0.00,VWS V14.01,2013-03-22 18:24:00,
2013-03-22 14:25:00,50.4,33.0,30.04,South,190,3.0,5.0,51,0.00,,---,0.00,VWS V14.01,2013-03-22 18:25:00,
2013-03-22 14:27:00,50.6,34.1,30.04,SSE,153,2.0,5.0,53,0.00,,---,0.00,VWS V14.01,2013-03-22 18:27:00,
2013-03-22 14:30:00,50.6,33.2,30.03,SE,140,2.0,5.0,51,0.00,,---,0.00,VWS V14.01,2013-03-22 18:30:00,
2013-03-22 14:33:00,50.5,34.0,30.03,SE,137,1.0,6.0,53,0.00,,---,0.00,VWS V14.01,2013-03-22 18:33:00,
2013-03-22 14:36:00,50.4,33.9,30.03,ESE,117,2.0,6.0,53,0.00,,---,0.00,VWS V14.01,2013-03-22 18:36:00,
2013-03-22 14:39:00,50.5,34.0,30.03,SSE,156,3.0,6.0,53,0.00,,---,0.00,VWS V14.01,2013-03-22 18:39:00,
2013-03-22 14:42:00,50.7,33.7,30.03,South,183,3.0,6.0,52,0.00,,---,0.00,VWS V14.01,2013-03-22 18:42:00,
2013-03-22 14:45:00,50.8,33.8,30.01,SSE,154,6.0,7.0,52,0.00,,---,0.00,VWS V14.01,2013-03-22 18:45:00,
2013-03-22 14:48:00,51.0,34.0,30.01,SSW,192,3.0,6.0,52,0.00,,---,0.00,VWS V14.01,2013-03-22 18:48:00,
2013-03-22 14:51:00,50.9,33.9,30.01,SE,140,3.0,6.0,52,0.00,,---,0.00,VWS V14.01,2013-03-22 18:51:00,
2013-03-22 14:54:00,50.9,33.9,30.01,SSW,196,3.0,6.0,52,0.00,,---,0.00,VWS V14.01,2013-03-22 18:54:00,
2013-03-22 14:57:00,50.9,33.9,30.01,SSE,165,1.0,6.0,52,0.00,,---,0.00,VWS V14.01,2013-03-22 18:57:00,
2013-03-22 15:00:00,50.9,33.9,30.01,SE,127,4.0,6.0,52,0.00,,---,0.00,VWS V14.01,2013-03-22 19:00:00,
2013-03-22 15:03:00,50.9,33.9,30.01,SSE,166,0.0,5.0,52,0.00,,---,0.00,VWS V14.01,2013-03-22 19:03:00,
2013-03-22 15:06:00,51.0,33.0,30.01,SSW,194,1.0,5.0,50,0.00,,---,0.00,VWS V14.01,2013-03-22 19:06:00,
2013-03-22 15:09:00,51.1,33.1,30.01,SE,132,0.0,5.0,50,0.00,,---,0.00,VWS V14.01,2013-03-22 19:09:00,
2013-03-22 15:12:00,51.1,33.1,30.01,SE,132,2.0,5.0,50,0.00,,---,0.00,VWS V14.01,2013-03-22 19:12:00,
2013-03-22 15:15:00,51.1,33.1,30.00,SSE,164,2.0,5.0,50,0.00,,---,0.00,VWS V14.01,2013-03-22 19:15:00,
2013-03-22 15:18:00,51.1,33.6,30.00,SSW,211,4.0,5.0,51,0.00,,---,0.00,VWS V14.01,2013-03-22 19:18:00,
2013-03-22 15:21:00,51.0,33.0,30.00,SSW,211,0.0,5.0,50,0.00,,---,0.00,VWS V14.01,2013-03-22 19:21:00,
2013-03-22 15:24:00,51.1,33.1,30.00,SSW,211,0.0,5.0,50,0.00,,---,0.00,VWS V14.01,2013-03-22 19:24:00,
2013-03-22 15:27:00,51.2,34.2,30.00,SSW,211,0.0,5.0,52,0.00,,---,0.00,VWS V14.01,2013-03-22 19:27:00,
2013-03-22 15:30:00,51.3,33.8,30.01,SE,132,4.0,5.0,51,0.00,,---,0.00,VWS V14.01,2013-03-22 19:30:00,
2013-03-22 15:33:00,51.4,34.9,30.01,South,190,2.0,4.0,53,0.00,,---,0.00,VWS V14.01,2013-03-22 19:33:00,
2013-03-22 15:36:00,51.4,34.4,30.01,SE,142,2.0,5.0,52,0.00,,---,0.00,VWS V14.01,2013-03-22 19:36:00,
2013-03-22 15:39:00,51.4,34.4,30.01,SE,142,2.0,5.0,52,0.00,,---,0.00,VWS V14.01,2013-03-22 19:39:00,
2013-03-22 15:42:00,51.3,34.3,30.01,SE,132,3.0,6.0,52,0.00,,---,0.00,VWS V14.01,2013-03-22 19:42:00,
2013-03-22 15:45:00,51.2,34.2,30.00,SE,131,0.0,6.0,52,0.00,,---,0.00,VWS V14.01,2013-03-22 19:45:00,
2013-03-22 15:48:00,51.3,34.8,30.00,SE,131,2.0,2.0,53,0.00,,---,0.00,VWS V14.01,2013-03-22 19:48:00,
2013-03-22 15:51:00,51.5,35.0,30.00,SE,131,0.0,3.0,53,0.00,,---,0.00,VWS V14.01,2013-03-22 19:51:00,
2013-03-22 15:54:00,51.7,34.7,30.00,SSW,193,0.0,3.0,52,0.00,,---,0.00,VWS V14.01,2013-03-22 19:54:00,
2013-03-22 15:57:00,51.8,34.3,30.00,SSW,193,0.0,3.0,51,0.00,,---,0.00,VWS V14.01,2013-03-22 19:57:00,
2013-03-22 16:00:00,51.9,34.8,30.00,SSW,193,0.0,3.0,52,0.00,,---,0.00,VWS V14.01,2013-03-22 20:00:00,
2013-03-22 16:03:00,52.1,34.5,30.00,SSE,157,1.0,3.0,51,0.00,,---,0.00,VWS V14.01,2013-03-22 20:03:00,
2013-03-22 16:06:00,52.2,34.6,30.00,SSE,157,0.0,3.0,51,0.00,,---,0.00,VWS V14.01,2013-03-22 20:06:00,
2013-03-22 16:09:00,52.4,34.8,30.00,SSW,197,2.0,3.0,51,0.00,,---,0.00,VWS V14.01,2013-03-22 20:09:00,
2013-03-22 16:12:00,52.3,34.7,30.00,SW,219,1.0,6.0,51,0.00,,---,0.00,VWS V14.01,2013-03-22 20:12:00,
2013-03-22 16:15:00,52.3,34.7,30.00,SW,219,0.0,6.0,51,0.00,,---,0.00,VWS V14.01,2013-03-22 20:15:00,
2013-03-22 16:18:00,52.4,35.3,30.00,SW,219,0.0,3.0,52,0.00,,---,0.00,VWS V14.01,2013-03-22 20:18:00,
2013-03-22 16:21:00,52.3,35.2,30.00,SSW,198,1.0,3.0,52,0.00,,---,0.00,VWS V14.01,2013-03-22 20:21:00,
2013-03-22 16:24:00,52.3,35.2,30.00,SSE,154,3.0,4.0,52,0.00,,---,0.00,VWS V14.01,2013-03-22 20:24:00,
2013-03-22 16:27:00,52.2,35.1,30.00,SSE,153,3.0,5.0,52,0.00,,---,0.00,VWS V14.01,2013-03-22 20:27:00,
2013-03-22 16:30:00,52.1,35.0,30.00,SSE,162,3.0,5.0,52,0.00,,---,0.00,VWS V14.01,2013-03-22 20:30:00,
2013-03-22 16:33:00,52.0,35.9,30.00,SSE,154,4.0,5.0,54,0.00,,---,0.00,VWS V14.01,2013-03-22 20:33:00,
2013-03-22 16:36:00,51.8,35.2,30.00,SW,219,4.0,6.0,53,0.00,,---,0.00,VWS V14.01,2013-03-22 20:36:00,
2013-03-22 16:39:00,51.7,34.7,30.00,SW,218,2.0,6.0,52,0.00,,---,0.00,VWS V14.01,2013-03-22 20:39:00,
2013-03-22 16:42:00,51.6,35.5,30.00,SW,218,2.0,6.0,54,0.00,,---,0.00,VWS V14.01,2013-03-22 20:42:00,
2013-03-22 16:45:00,51.5,35.0,30.00,SW,218,0.0,6.0,53,0.00,,---,0.00,VWS V14.01,2013-03-22 20:45:00,
2013-03-22 16:46:00,51.5,35.0,30.00,SW,218,2.0,2.0,53,0.00,,---,0.00,VWS V14.01,2013-03-22 20:46:00,
2013-03-22 16:48:00,51.4,35.8,30.00,SW,223,3.0,6.0,55,0.00,,---,0.00,VWS V14.01,2013-03-22 20:48:00,
2013-03-22 16:51:00,51.3,35.7,30.00,SW,222,1.0,6.0,55,0.00,,---,0.00,VWS V14.01,2013-03-22 20:51:00,
2013-03-22 16:55:00,51.3,35.7,30.00,SSE,160,2.0,6.0,55,0.00,,---,0.00,VWS V14.01,2013-03-22 20:55:00,
2013-03-22 16:58:00,51.2,36.1,30.00,SE,145,2.0,6.0,56,0.00,,---,0.00,VWS V14.01,2013-03-22 20:58:00,
2013-03-22 17:00:00,51.2,36.1,29.99,SE,146,1.0,6.0,56,0.00,,---,0.00,VWS V14.01,2013-03-22 21:00:00,
2013-03-22 17:01:00,51.2,36.1,29.99,SE,146,2.0,2.0,56,0.00,,---,0.00,VWS V14.01,2013-03-22 21:01:00,
2013-03-22 17:04:00,51.2,36.1,29.99,SSE,151,1.0,3.0,56,0.00,,---,0.00,VWS V14.01,2013-03-22 21:04:00,
2013-03-22 17:07:00,51.2,35.6,29.99,SSW,203,2.0,4.0,55,0.00,,---,0.00,VWS V14.01,2013-03-22 21:07:00,
2013-03-22 17:10:00,51.0,35.9,29.99,SSW,203,0.0,4.0,56,0.00,,---,0.00,VWS V14.01,2013-03-22 21:10:00,
2013-03-22 17:13:00,51.0,35.9,29.99,SSW,203,2.0,4.0,56,0.00,,---,0.00,VWS V14.01,2013-03-22 21:13:00,
2013-03-22 17:15:00,51.0,35.9,29.98,SSW,203,1.0,4.0,56,0.00,,---,0.00,VWS V14.01,2013-03-22 21:15:00,
2013-03-22 17:16:00,50.9,36.2,29.98,ESE,109,1.0,4.0,57,0.00,,---,0.00,VWS V14.01,2013-03-22 21:16:00,
2013-03-22 17:19:00,50.8,35.7,29.98,SSE,168,3.0,4.0,56,0.00,,---,0.00,VWS V14.01,2013-03-22 21:19:00,
2013-03-22 17:22:00,50.7,36.0,29.98,SSE,168,1.0,4.0,57,0.00,,---,0.00,VWS V14.01,2013-03-22 21:22:00,
2013-03-22 17:28:00,50.7,36.5,29.98,SE,126,2.0,4.0,58,0.00,,---,0.00,VWS V14.01,2013-03-22 21:28:00,
2013-03-22 17:30:00,50.7,36.0,29.99,SE,126,0.0,4.0,57,0.00,,---,0.00,VWS V14.01,2013-03-22 21:30:00,
2013-03-22 17:31:00,50.7,36.5,29.99,SE,126,2.0,2.0,58,0.00,,---,0.00,VWS V14.01,2013-03-22 21:31:00,
2013-03-22 17:34:00,50.7,36.0,29.99,South,169,2.0,4.0,57,0.00,,---,0.00,VWS V14.01,2013-03-22 21:34:00,
2013-03-22 17:37:00,50.7,35.6,29.99,South,169,0.0,4.0,56,0.00,,---,0.00,VWS V14.01,2013-03-22 21:37:00,
2013-03-22 17:40:00,50.7,35.6,29.99,South,169,0.0,4.0,56,0.00,,---,0.00,VWS V14.01,2013-03-22 21:40:00,
2013-03-22 17:43:00,50.7,36.0,29.99,South,169,1.0,4.0,57,0.00,,---,0.00,VWS V14.01,2013-03-22 21:43:00,
2013-03-22 17:45:00,50.7,36.0,29.99,South,169,0.0,4.0,57,0.00,,---,0.00,VWS V14.01,2013-03-22 21:45:00,
2013-03-22 17:46:00,50.7,36.0,29.99,South,169,0.0,0.0,57,0.00,,---,0.00,VWS V14.01,2013-03-22 21:46:00,
2013-03-22 17:49:00,50.7,36.0,29.99,South,169,0.0,2.0,57,0.00,,---,0.00,VWS V14.01,2013-03-22 21:49:00,
2013-03-22 17:52:00,50.7,36.5,29.99,South,169,0.0,2.0,58,0.00,,---,0.00,VWS V14.01,2013-03-22 21:52:00,
2013-03-22 17:55:00,50.7,36.0,29.99,South,169,0.0,2.0,57,0.00,,---,0.00,VWS V14.01,2013-03-22 21:55:00,
2013-03-22 17:58:00,50.8,36.6,29.99,South,169,0.0,2.0,58,0.00,,---,0.00,VWS V14.01,2013-03-22 21:58:00,
2013-03-22 18:00:00,50.8,36.6,30.00,South,169,0.0,2.0,58,0.00,,---,0.00,VWS V14.01,2013-03-22 22:00:00,
2013-03-22 18:01:00,50.8,36.6,30.00,South,171,1.0,2.0,58,0.00,,---,0.00,VWS V14.01,2013-03-22 22:01:00,
2013-03-22 18:04:00,50.8,36.6,30.00,South,171,0.0,2.0,58,0.00,,---,0.00,VWS V14.01,2013-03-22 22:04:00,
2013-03-22 18:07:00,50.7,36.5,30.00,South,169,1.0,2.0,58,0.00,,---,0.00,VWS V14.01,2013-03-22 22:07:00,
2013-03-22 18:10:00,50.7,36.5,30.00,South,169,0.0,2.0,58,0.00,,---,0.00,VWS V14.01,2013-03-22 22:10:00,
2013-03-22 18:13:00,50.6,36.4,30.00,SSE,168,3.0,3.0,58,0.00,,---,0.00,VWS V14.01,2013-03-22 22:13:00,
2013-03-22 18:15:00,50.6,36.4,29.99,SSE,163,2.0,3.0,58,0.00,,---,0.00,VWS V14.01,2013-03-22 22:15:00,
2013-03-22 18:16:00,50.6,36.4,29.99,SSE,164,1.0,2.0,58,0.00,,---,0.00,VWS V14.01,2013-03-22 22:16:00,
2013-03-22 18:19:00,50.5,36.7,29.99,SSE,163,2.0,2.0,59,0.00,,---,0.00,VWS V14.01,2013-03-22 22:19:00,
2013-03-22 18:22:00,50.5,36.7,29.99,SSE,163,2.0,3.0,59,0.00,,---,0.00,VWS V14.01,2013-03-22 22:22:00,
2013-03-22 18:26:00,50.4,36.6,29.99,SSE,163,1.0,3.0,59,0.00,,---,0.00,VWS V14.01,2013-03-22 22:26:00,
2013-03-22 18:29:00,50.4,37.0,29.99,SSE,163,0.0,3.0,60,0.00,,---,0.00,VWS V14.01,2013-03-22 22:29:00,
2013-03-22 18:30:00,50.4,37.0,29.98,SSE,163,0.0,3.0,60,0.00,,---,0.00,VWS V14.01,2013-03-22 22:30:00,
2013-03-22 18:31:00,50.3,37.0,29.98,SSE,163,0.0,0.0,60,0.00,,---,0.00,VWS V14.01,2013-03-22 22:31:00,
2013-03-22 18:35:00,50.3,37.4,29.98,SSE,163,0.0,0.0,61,0.00,,---,0.00,VWS V14.01,2013-03-22 22:35:00,
2013-03-22 18:38:00,50.3,37.4,29.98,SE,142,0.0,3.0,61,0.00,,---,0.00,VWS V14.01,2013-03-22 22:38:00,
2013-03-22 18:41:00,50.2,37.3,29.98,SE,143,0.0,3.0,61,0.00,,---,0.00,VWS V14.01,2013-03-22 22:41:00,
2013-03-22 18:43:00,50.2,37.3,29.98,SE,143,0.0,3.0,61,0.00,,---,0.00,VWS V14.01,2013-03-22 22:43:00,
2013-03-22 18:45:00,50.2,37.3,29.98,SE,143,0.0,3.0,61,0.00,,---,0.00,VWS V14.01,2013-03-22 22:45:00,
2013-03-22 18:47:00,50.1,37.6,29.98,SE,143,0.0,1.0,62,0.00,,---,0.00,VWS V14.01,2013-03-22 22:47:00,
2013-03-22 18:50:00,50.1,37.6,29.98,South,183,0.0,2.0,62,0.00,,---,0.00,VWS V14.01,2013-03-22 22:50:00,
2013-03-22 18:53:00,50.0,37.5,29.98,South,183,0.0,2.0,62,0.00,,---,0.00,VWS V14.01,2013-03-22 22:53:00,
2013-03-22 18:56:00,50.0,37.5,29.98,South,191,1.0,2.0,62,0.00,,---,0.00,VWS V14.01,2013-03-22 22:56:00,
2013-03-22 18:59:00,49.9,37.8,30.00,SSW,192,1.0,2.0,63,0.00,,---,0.00,VWS V14.01,2013-03-22 22:59:00,
2013-03-22 19:00:00,49.9,37.4,30.00,SSW,192,1.0,2.0,62,0.00,,---,0.00,VWS V14.01,2013-03-22 23:00:00,
2013-03-22 19:02:00,49.9,37.4,30.00,SSW,192,0.0,1.0,62,0.00,,---,0.00,VWS V14.01,2013-03-22 23:02:00,
2013-03-22 19:05:00,49.9,37.8,30.00,SSW,192,0.0,1.0,63,0.00,,---,0.00,VWS V14.01,2013-03-22 23:05:00,
2013-03-22 19:08:00,49.9,37.4,30.00,SSW,192,0.0,1.0,62,0.00,,---,0.00,VWS V14.01,2013-03-22 23:08:00,
2013-03-22 19:11:00,49.9,37.4,30.00,SSW,192,0.0,2.0,62,0.00,,---,0.00,VWS V14.01,2013-03-22 23:11:00,
2013-03-22 19:14:00,49.9,37.4,30.01,SSW,192,1.0,2.0,62,0.00,,---,0.00,VWS V14.01,2013-03-22 23:14:00,
2013-03-22 19:15:00,49.9,37.4,30.01,SSW,192,1.0,3.0,62,0.00,,---,0.00,VWS V14.01,2013-03-22 23:15:00,
2013-03-22 19:17:00,49.8,37.3,30.01,SSW,192,0.0,2.0,62,0.00,,---,0.00,VWS V14.01,2013-03-22 23:17:00,
2013-03-22 19:20:00,49.9,37.4,30.01,SSW,192,0.0,2.0,62,0.00,,---,0.00,VWS V14.01,2013-03-22 23:20:00,
2013-03-22 19:23:00,49.9,37.4,30.01,SSW,192,0.0,2.0,62,0.00,,---,0.00,VWS V14.01,2013-03-22 23:23:00,
2013-03-22 19:26:00,49.9,37.4,30.01,SSW,192,0.0,2.0,62,0.00,,---,0.00,VWS V14.01,2013-03-22 23:26:00,
2013-03-22 19:29:00,49.9,37.4,30.01,SSW,192,0.0,2.0,62,0.00,,---,0.00,VWS V14.01,2013-03-22 23:29:00,
2013-03-22 19:30:00,49.9,37.4,30.01,SSW,192,0.0,2.0,62,0.00,,---,0.00,VWS V14.01,2013-03-22 23:30:00,
2013-03-22 19:32:00,49.9,37.4,30.01,SSW,192,0.0,0.0,62,0.00,,---,0.00,VWS V14.01,2013-03-22 23:32:00,
2013-03-22 19:35:00,49.9,37.4,30.01,SSW,192,0.0,0.0,62,0.00,,---,0.00,VWS V14.01,2013-03-22 23:35:00,
2013-03-22 19:38:00,49.9,37.8,30.01,SSW,192,1.0,2.0,63,0.00,,---,0.00,VWS V14.01,2013-03-22 23:38:00,
2013-03-22 19:41:00,49.9,37.8,30.01,SSW,192,0.0,2.0,63,0.00,,---,0.00,VWS V14.01,2013-03-22 23:41:00,
2013-03-22 19:44:00,49.9,37.8,30.01,SSW,192,0.0,2.0,63,0.00,,---,0.00,VWS V14.01,2013-03-22 23:44:00,
2013-03-22 19:45:00,49.9,37.8,30.01,SSW,192,1.0,2.0,63,0.00,,---,0.00,VWS V14.01,2013-03-22 23:45:00,
2013-03-22 19:47:00,49.9,37.8,30.01,South,184,1.0,2.0,63,0.00,,---,0.00,VWS V14.01,2013-03-22 23:47:00,
2013-03-22 19:53:00,49.9,37.8,30.01,South,184,0.0,2.0,63,0.00,,---,0.00,VWS V14.01,2013-03-22 23:53:00,
2013-03-22 19:56:00,49.9,37.8,30.01,South,184,0.0,2.0,63,0.00,,---,0.00,VWS V14.01,2013-03-22 23:56:00,
2013-03-22 19:59:00,49.9,37.8,30.01,South,184,0.0,2.0,63,0.00,,---,0.00,VWS V14.01,2013-03-22 23:59:00,
2013-03-22 20:00:00,49.9,37.8,30.01,South,186,1.0,2.0,63,0.00,,---,0.00,VWS V14.01,2013-03-23 00:00:00,
2013-03-22 20:02:00,49.9,37.8,30.01,South,186,0.0,1.0,63,0.00,,---,0.00,VWS V14.01,2013-03-23 00:02:00,
2013-03-22 20:05:00,49.9,37.8,30.01,South,185,0.0,1.0,63,0.00,,---,0.00,VWS V14.01,2013-03-23 00:05:00,
2013-03-22 20:08:00,49.9,37.8,30.01,South,185,0.0,1.0,63,0.00,,---,0.00,VWS V14.01,2013-03-23 00:08:00,
2013-03-22 20:11:00,49.9,37.8,30.01,South,185,0.0,1.0,63,0.00,,---,0.00,VWS V14.01,2013-03-23 00:11:00,
2013-03-22 20:14:00,49.9,37.8,30.01,South,185,0.0,1.0,63,0.00,,---,0.00,VWS V14.01,2013-03-23 00:14:00,
2013-03-22 20:15:00,49.9,37.8,30.01,South,185,0.0,1.0,63,0.00,,---,0.00,VWS V14.01,2013-03-23 00:15:00,
2013-03-22 20:17:00,49.9,37.8,30.01,South,185,0.0,0.0,63,0.00,,---,0.00,VWS V14.01,2013-03-23 00:17:00,
2013-03-22 20:20:00,49.9,37.8,30.01,South,185,0.0,0.0,63,0.00,,---,0.00,VWS V14.01,2013-03-23 00:20:00,
2013-03-22 20:23:00,49.9,37.8,30.01,South,185,0.0,0.0,63,0.00,,---,0.00,VWS V14.01,2013-03-23 00:23:00,
2013-03-22 20:26:00,49.9,38.2,30.01,South,185,0.0,0.0,64,0.00,,---,0.00,VWS V14.01,2013-03-23 00:26:00,
2013-03-22 20:29:00,49.9,38.2,30.01,South,185,0.0,0.0,64,0.00,,---,0.00,VWS V14.01,2013-03-23 00:29:00,
2013-03-22 20:30:00,49.9,38.2,30.01,South,185,0.0,0.0,64,0.00,,---,0.00,VWS V14.01,2013-03-23 00:30:00,
2013-03-22 20:32:00,49.9,38.2,30.01,South,185,0.0,0.0,64,0.00,,---,0.00,VWS V14.01,2013-03-23 00:32:00,
2013-03-22 20:38:00,49.9,38.2,30.01,South,185,0.0,0.0,64,0.00,,---,0.00,VWS V14.01,2013-03-23 00:38:00,
2013-03-22 20:41:00,50.0,38.3,30.01,South,185,0.0,0.0,64,0.00,,---,0.00,VWS V14.01,2013-03-23 00:41:00,
2013-03-22 20:44:00,50.0,38.3,30.01,South,185,0.0,0.0,64,0.00,,---,0.00,VWS V14.01,2013-03-23 00:44:00,
2013-03-22 20:45:00,50.0,38.3,30.01,South,185,0.0,0.0,64,0.00,,---,0.00,VWS V14.01,2013-03-23 00:45:00,
2013-03-22 20:47:00,49.9,38.2,30.01,South,185,0.0,0.0,64,0.00,,---,0.00,VWS V14.01,2013-03-23 00:47:00,
2013-03-22 20:50:00,50.0,38.3,30.01,South,185,0.0,0.0,64,0.00,,---,0.00,VWS V14.01,2013-03-23 00:50:00,
2013-03-22 20:53:00,50.0,38.3,30.01,South,185,0.0,0.0,64,0.00,,---,0.00,VWS V14.01,2013-03-23 00:53:00,
2013-03-22 20:56:00,50.0,38.7,30.01,South,185,0.0,0.0,65,0.00,,---,0.00,VWS V14.01,2013-03-23 00:56:00,
2013-03-22 20:59:00,50.0,38.3,30.02,South,185,0.0,0.0,64,0.00,,---,0.00,VWS V14.01,2013-03-23 00:59:00,
2013-03-22 21:00:00,50.0,38.3,30.02,South,185,0.0,0.0,64,0.00,,---,0.00,VWS V14.01,2013-03-23 01:00:00,
2013-03-22 21:02:00,50.0,38.7,30.02,South,185,0.0,0.0,65,0.00,,---,0.00,VWS V14.01,2013-03-23 01:02:00,
2013-03-22 21:05:00,50.0,38.7,30.02,South,185,0.0,0.0,65,0.00,,---,0.00,VWS V14.01,2013-03-23 01:05:00,
2013-03-22 21:08:00,50.0,38.7,30.02,South,185,0.0,0.0,65,0.00,,---,0.00,VWS V14.01,2013-03-23 01:08:00,
2013-03-22 21:12:00,50.1,38.8,30.02,South,185,0.0,0.0,65,0.00,,---,0.00,VWS V14.01,2013-03-23 01:12:00,
2013-03-22 21:14:00,50.1,39.2,30.01,South,185,0.0,0.0,66,0.00,,---,0.00,VWS V14.01,2013-03-23 01:14:00,
2013-03-22 21:15:00,50.1,39.2,30.01,South,185,0.0,0.0,66,0.00,,---,0.00,VWS V14.01,2013-03-23 01:15:00,
2013-03-22 21:17:00,50.1,38.8,30.01,South,185,0.0,0.0,65,0.00,,---,0.00,VWS V14.01,2013-03-23 01:17:00,
2013-03-22 21:20:00,50.1,39.2,30.01,South,185,0.0,0.0,66,0.00,,---,0.00,VWS V14.01,2013-03-23 01:20:00,
2013-03-22 21:24:00,50.1,39.2,30.01,South,185,0.0,0.0,66,0.00,,---,0.00,VWS V14.01,2013-03-23 01:24:00,
2013-03-22 21:27:00,50.1,39.2,30.01,South,185,0.0,0.0,66,0.00,,---,0.00,VWS V14.01,2013-03-23 01:27:00,
2013-03-22 21:30:00,50.1,39.2,30.01,South,185,0.0,0.0,66,0.00,,---,0.00,VWS V14.01,2013-03-23 01:30:00,
2013-03-22 21:33:00,50.1,39.6,30.01,South,185,0.0,0.0,67,0.00,,---,0.00,VWS V14.01,2013-03-23 01:33:00,
2013-03-22 21:36:00,50.2,39.3,30.01,South,185,0.0,0.0,66,0.00,,---,0.00,VWS V14.01,2013-03-23 01:36:00,
2013-03-22 21:39:00,50.1,39.2,30.01,South,185,0.0,0.0,66,0.00,,---,0.00,VWS V14.01,2013-03-23 01:39:00,
2013-03-22 21:42:00,50.1,39.2,30.01,South,185,0.0,0.0,66,0.00,,---,0.00,VWS V14.01,2013-03-23 01:42:00,
2013-03-22 21:45:00,50.1,39.2,30.02,South,185,0.0,0.0,66,0.00,,---,0.00,VWS V14.01,2013-03-23 01:45:00,
2013-03-22 21:48:00,50.1,39.2,30.02,South,185,0.0,0.0,66,0.00,,---,0.00,VWS V14.01,2013-03-23 01:48:00,
2013-03-22 21:51:00,50.1,39.2,30.02,South,185,0.0,0.0,66,0.00,,---,0.00,VWS V14.01,2013-03-23 01:51:00,
2013-03-22 21:54:00,50.1,39.2,30.02,South,185,0.0,0.0,66,0.00,,---,0.00,VWS V14.01,2013-03-23 01:54:00,
2013-03-22 21:57:00,50.1,39.2,30.02,South,185,0.0,0.0,66,0.00,,---,0.00,VWS V14.01,2013-03-23 01:57:00,
2013-03-22 22:00:00,50.1,39.2,30.01,South,185,0.0,0.0,66,0.00,,---,0.00,VWS V14.01,2013-03-23 02:00:00,
2013-03-22 22:03:00,50.1,39.2,30.01,South,185,0.0,0.0,66,0.00,,---,0.00,VWS V14.01,2013-03-23 02:03:00,
2013-03-22 22:06:00,50.1,39.2,30.01,South,185,0.0,0.0,66,0.00,,---,0.00,VWS V14.01,2013-03-23 02:06:00,
2013-03-22 22:09:00,50.1,39.2,30.01,South,185,0.0,0.0,66,0.00,,---,0.00,VWS V14.01,2013-03-23 02:09:00,
2013-03-22 22:12:00,50.1,39.2,30.01,South,185,0.0,0.0,66,0.00,,---,0.00,VWS V14.01,2013-03-23 02:12:00,
2013-03-22 22:15:00,50.1,39.2,30.01,South,185,0.0,0.0,66,0.00,,---,0.00,VWS V14.01,2013-03-23 02:15:00,
2013-03-22 22:18:00,50.1,39.2,30.01,South,185,0.0,0.0,66,0.00,,---,0.00,VWS V14.01,2013-03-23 02:18:00,
2013-03-22 22:21:00,50.1,39.2,30.01,South,185,0.0,0.0,66,0.00,,---,0.00,VWS V14.01,2013-03-23 02:21:00,
2013-03-22 22:24:00,50.1,39.2,30.01,South,185,0.0,0.0,66,0.00,,---,0.00,VWS V14.01,2013-03-23 02:24:00,
2013-03-22 22:27:00,50.1,39.6,30.01,South,185,0.0,0.0,67,0.00,,---,0.00,VWS V14.01,2013-03-23 02:27:00,
2013-03-22 22:30:00,50.1,39.2,30.01,South,185,0.0,0.0,66,0.00,,---,0.00,VWS V14.01,2013-03-23 02:30:00,
2013-03-22 22:33:00,50.1,39.2,30.01,South,185,0.0,0.0,66,0.00,,---,0.00,VWS V14.01,2013-03-23 02:33:00,
2013-03-22 22:36:00,50.1,39.6,30.01,South,185,0.0,0.0,67,0.00,,---,0.00,VWS V14.01,2013-03-23 02:36:00,
2013-03-22 22:39:00,50.1,39.2,30.01,South,185,0.0,0.0,66,0.00,,---,0.00,VWS V14.01,2013-03-23 02:39:00,
2013-03-22 22:42:00,50.1,39.2,30.01,South,185,0.0,0.0,66,0.00,,---,0.00,VWS V14.01,2013-03-23 02:42:00,
2013-03-22 22:45:00,50.1,39.2,30.01,South,185,0.0,0.0,66,0.00,,---,0.00,VWS V14.01,2013-03-23 02:45:00,
2013-03-22 22:48:00,50.1,39.6,30.01,South,185,0.0,0.0,67,0.00,,---,0.00,VWS V14.01,2013-03-23 02:48:00,
2013-03-22 22:51:00,50.1,39.6,30.01,South,185,0.0,0.0,67,0.00,,---,0.00,VWS V14.01,2013-03-23 02:51:00,
2013-03-22 22:54:00,50.1,39.6,30.01,South,185,0.0,0.0,67,0.00,,---,0.00,VWS V14.01,2013-03-23 02:54:00,
2013-03-22 22:57:00,50.1,40.0,30.01,South,185,0.0,0.0,68,0.00,,---,0.00,VWS V14.01,2013-03-23 02:57:00,
2013-03-22 23:00:00,50.1,40.0,30.01,South,185,0.0,0.0,68,0.00,,---,0.00,VWS V14.01,2013-03-23 03:00:00,
2013-03-22 23:04:00,50.1,39.6,30.01,South,185,0.0,0.0,67,0.00,,---,0.00,VWS V14.01,2013-03-23 03:04:00,
2013-03-22 23:07:00,50.1,40.0,30.01,South,185,0.0,0.0,68,0.00,,---,0.00,VWS V14.01,2013-03-23 03:07:00,
2013-03-22 23:10:00,50.1,40.0,30.01,South,185,0.0,0.0,68,0.00,,---,0.00,VWS V14.01,2013-03-23 03:10:00,
2013-03-22 23:13:00,50.1,40.0,30.01,South,185,0.0,0.0,68,0.00,,---,0.00,VWS V14.01,2013-03-23 03:13:00,
2013-03-22 23:15:00,50.0,39.9,30.01,South,185,0.0,0.0,68,0.00,,---,0.00,VWS V14.01,2013-03-23 03:15:00,
2013-03-22 23:16:00,50.0,39.9,30.01,South,185,0.0,0.0,68,0.00,,---,0.00,VWS V14.01,2013-03-23 03:16:00,
2013-03-22 23:19:00,50.0,39.9,30.01,South,185,0.0,0.0,68,0.00,,---,0.00,VWS V14.01,2013-03-23 03:19:00,
2013-03-22 23:22:00,50.0,40.2,30.01,South,185,0.0,0.0,69,0.00,,---,0.00,VWS V14.01,2013-03-23 03:22:00,
2013-03-22 23:25:00,50.0,40.2,30.01,South,185,0.0,0.0,69,0.00,,---,0.00,VWS V14.01,2013-03-23 03:25:00,
2013-03-22 23:28:00,49.9,40.2,30.01,South,185,0.0,0.0,69,0.00,,---,0.00,VWS V14.01,2013-03-23 03:28:00,
2013-03-22 23:30:00,49.9,40.2,30.01,South,185,0.0,0.0,69,0.00,,---,0.00,VWS V14.01,2013-03-23 03:30:00,
2013-03-22 23:31:00,49.9,40.2,30.01,South,185,0.0,0.0,69,0.00,,---,0.00,VWS V14.01,2013-03-23 03:31:00,
2013-03-22 23:34:00,49.9,40.2,30.01,South,185,0.0,0.0,69,0.00,,---,0.00,VWS V14.01,2013-03-23 03:34:00,
2013-03-22 23:37:00,49.9,39.8,30.01,South,185,0.0,0.0,68,0.00,,---,0.00,VWS V14.01,2013-03-23 03:37:00,
2013-03-22 23:43:00,49.8,40.4,30.01,South,185,0.0,0.0,70,0.00,,---,0.00,VWS V14.01,2013-03-23 03:43:00,
2013-03-22 23:45:00,49.8,40.4,30.01,South,185,0.0,0.0,70,0.00,,---,0.00,VWS V14.01,2013-03-23 03:45:00,
2013-03-22 23:46:00,49.7,40.3,30.01,South,185,0.0,0.0,70,0.00,,---,0.00,VWS V14.01,2013-03-23 03:46:00,
2013-03-22 23:49:00,49.7,40.3,30.01,South,185,0.0,0.0,70,0.00,,---,0.00,VWS V14.01,2013-03-23 03:49:00,
2013-03-22 23:52:00,49.6,40.2,30.01,South,185,0.0,0.0,70,0.00,,---,0.00,VWS V14.01,2013-03-23 03:52:00,
2013-03-22 23:55:00,49.6,40.2,30.01,South,185,0.0,0.0,70,0.00,,---,0.00,VWS V14.01,2013-03-23 03:55:00,
2013-03-22 23:58:00,49.5,39.8,30.01,South,185,0.0,0.0,69,0.00,,---,0.00,VWS V14.01,2013-03-23 03:58:00,